Time;durP1;ratioP1;P1;durP2;ratioP2;P2;SDS_P1;SDS_P2;PMS_P1;PMS_P2;Temp;Humidity;BMP_temperature;BMP_pressure;BME280_temperature;BME280_humidity;BME280_pressure;Samples;Min_cycle;Max_cycle;Signal;HPM_P1;HPM_P2
2022/03/27 00:02:24;;;;;;;24.90;17.53;;;;;;;10.44;46.21;97482.88;5048338;28;20202;-59
2022/03/27 00:04:50;;;;;;;23.50;17.83;;;;;;;10.43;46.51;97477.69;5058211;28;20207;-56
2022/03/27 00:07:18;;;;;;;23.13;17.40;;;;;;;10.40;46.57;97477.94;5058569;28;20669;-55
2022/03/27 00:09:44;;;;;;;23.03;17.13;;;;;;;10.35;46.84;97475.66;5058473;28;20214;-56
2022/03/27 00:12:11;;;;;;;23.90;17.97;;;;;;;10.32;46.79;97469.75;5058569;28;20243;-56
2022/03/27 00:14:38;;;;;;;25.33;17.57;;;;;;;10.27;46.78;97477.22;5058456;28;20219;-57
2022/03/27 00:17:04;;;;;;;24.47;17.90;;;;;;;10.26;47.32;97475.53;5060870;28;20219;-57
2022/03/27 00:19:31;;;;;;;21.60;16.37;;;;;;;10.23;47.65;97475.78;5071745;28;20198;-57
2022/03/27 00:21:57;;;;;;;21.63;16.60;;;;;;;10.17;46.95;97470.97;5077579;28;20199;-58
2022/03/27 00:24:25;;;;;;;23.87;17.67;;;;;;;10.12;46.85;97479.25;5079643;28;20295;-60
2022/03/27 00:26:52;;;;;;;21.27;17.07;;;;;;;10.14;46.16;97471.16;5068204;28;20246;-59
2022/03/27 00:29:18;;;;;;;20.33;16.77;;;;;;;10.15;46.54;97475.53;5064448;28;20227;-58
2022/03/27 00:31:45;;;;;;;21.17;16.77;;;;;;;10.17;45.76;97470.97;5064061;28;20250;-60
2022/03/27 00:34:11;;;;;;;21.63;17.30;;;;;;;10.18;46.06;97472.66;5057843;28;20206;-59
2022/03/27 00:36:38;;;;;;;23.30;16.90;;;;;;;10.12;46.55;97471.31;5057972;28;20244;-58
2022/03/27 00:39:04;;;;;;;22.60;17.23;;;;;;;10.06;47.20;97471.78;5044261;28;20209;-56
2022/03/27 00:41:32;;;;;;;21.30;17.40;;;;;;;10.02;46.94;97468.53;5057757;28;20555;-56
2022/03/27 00:43:58;;;;;;;22.77;17.83;;;;;;;9.99;47.16;97474.06;5056254;28;20226;-58
2022/03/27 00:46:25;;;;;;;22.37;17.30;;;;;;;9.96;46.35;97474.28;5057854;28;20662;-56
2022/03/27 00:48:51;;;;;;;22.13;17.03;;;;;;;9.88;46.50;97471.41;5057416;28;20203;-56
2022/03/27 00:51:18;;;;;;;23.03;17.43;;;;;;;9.74;47.55;97474.25;5058140;28;20313;-54
2022/03/27 00:53:45;;;;;;;20.23;16.17;;;;;;;9.78;47.25;97478.34;5063229;28;20218;-59
2022/03/27 00:56:11;;;;;;;23.67;17.47;;;;;;;9.71;46.46;97471.00;5064947;28;20211;-60
2022/03/27 00:58:39;;;;;;;23.57;16.97;;;;;;;9.63;46.71;97479.53;5065847;28;20620;-57
2022/03/27 01:01:15;;;;;;;24.23;17.37;;;;;;;9.57;47.21;97476.50;5057931;28;20211;-58
2022/03/27 01:03:43;;;;;;;22.67;16.97;;;;;;;9.54;47.18;97467.03;5056731;28;20238;-58
2022/03/27 01:06:19;;;;;;;24.10;18.07;;;;;;;9.52;47.02;97473.38;5057595;28;20205;-58
2022/03/27 01:11:29;;;;;;;23.67;17.23;;;;;;;9.28;48.79;97470.81;5056956;28;20273;-61
2022/03/27 01:13:58;;;;;;;20.40;16.23;;;;;;;9.32;47.72;97478.34;5056758;28;20218;-58
2022/03/27 01:16:34;;;;;;;22.63;15.70;;;;;;;9.33;47.11;97479.19;5056773;28;20280;-58
2022/03/27 01:19:01;;;;;;;21.10;16.47;;;;;;;9.32;47.09;97466.94;5048248;28;20206;-59
2022/03/27 01:21:29;;;;;;;22.53;16.60;;;;;;;9.32;46.95;97469.59;5056695;28;20210;-56
2022/03/27 01:23:56;;;;;;;21.70;17.50;;;;;;;9.25;48.08;97476.28;5055998;28;20203;-61
2022/03/27 01:26:23;;;;;;;28.17;17.37;;;;;;;9.28;48.33;97478.72;5056497;28;20691;-60
2022/03/27 01:28:49;;;;;;;23.13;16.63;;;;;;;9.17;48.37;97474.25;5056609;28;20233;-60
2022/03/27 01:31:16;;;;;;;24.67;17.87;;;;;;;9.04;49.84;97470.81;5056928;28;20218;-61
2022/03/27 01:33:42;;;;;;;23.83;17.50;;;;;;;9.12;48.89;97468.44;5056750;28;20260;-60
2022/03/27 01:36:09;;;;;;;21.77;17.43;;;;;;;9.06;48.06;97471.56;5057028;28;20575;-57
2022/03/27 01:38:37;;;;;;;22.70;17.70;;;;;;;9.00;48.34;97478.09;5056450;28;20650;-57
2022/03/27 01:41:04;;;;;;;21.63;16.80;;;;;;;8.96;49.26;97467.91;5056551;28;20261;-56
2022/03/27 01:43:30;;;;;;;24.77;16.33;;;;;;;8.91;48.55;97468.25;5056531;28;20207;-60
2022/03/27 01:45:57;;;;;;;21.57;16.67;;;;;;;8.83;48.77;97472.38;5056706;28;20199;-59
2022/03/27 01:48:23;;;;;;;23.77;17.07;;;;;;;8.76;48.80;97469.34;5056515;28;20211;-59
2022/03/27 01:50:59;;;;;;;23.37;17.63;;;;;;;8.72;48.75;97470.53;5055789;28;20548;-57
2022/03/27 01:53:26;;;;;;;20.30;16.37;;;;;;;8.69;49.11;97468.13;5056276;28;20233;-59
2022/03/27 01:55:54;;;;;;;22.33;16.33;;;;;;;8.69;49.18;97475.19;5056206;28;20234;-54
2022/03/27 01:58:20;;;;;;;22.17;15.70;;;;;;;8.72;49.60;97472.31;5053141;28;20211;-56
2022/03/27 02:00:47;;;;;;;24.40;16.30;;;;;;;8.63;49.61;97471.22;5045871;28;20218;-58
2022/03/27 02:03:14;;;;;;;24.27;16.77;;;;;;;8.61;49.68;97475.75;5055915;28;20250;-57
2022/03/27 02:05:40;;;;;;;22.33;16.43;;;;;;;8.65;49.67;97477.22;5055963;28;20206;-57
2022/03/27 02:08:08;;;;;;;22.33;16.40;;;;;;;8.59;49.51;97471.53;5042447;28;20215;-55
2022/03/27 02:10:35;;;;;;;22.23;16.47;;;;;;;8.62;49.92;97474.78;5055642;28;20309;-55
2022/03/27 02:13:02;;;;;;;24.00;17.67;;;;;;;8.58;49.79;97470.69;5056032;28;20230;-58
2022/03/27 02:15:29;;;;;;;25.47;17.90;;;;;;;8.56;49.73;97467.34;5054992;28;20203;-58
2022/03/27 02:17:57;;;;;;;22.77;17.53;;;;;;;8.53;49.45;97472.84;5055809;28;20210;-57
2022/03/27 02:20:23;;;;;;;21.03;16.67;;;;;;;8.50;49.50;97473.06;5055986;28;20211;-57
2022/03/27 02:22:50;;;;;;;27.63;17.80;;;;;;;8.39;50.37;97467.72;5055785;28;20650;-56
2022/03/27 02:25:18;;;;;;;20.90;15.20;;;;;;;8.37;50.41;97477.50;5054807;28;20249;-57
2022/03/27 02:27:45;;;;;;;25.07;16.47;;;;;;;8.31;49.91;97476.16;5055997;28;20217;-54
2022/03/27 02:30:15;;;;;;;22.30;16.97;;;;;;;8.24;49.77;97480.13;5056002;28;20222;-55
2022/03/27 02:32:41;;;;;;;22.80;16.70;;;;;;;8.19;50.52;97484.03;5050095;28;20682;-57
2022/03/27 02:35:08;;;;;;;24.13;16.70;;;;;;;8.08;50.92;97482.16;5047954;28;20319;-55
2022/03/27 02:37:36;;;;;;;23.50;15.87;;;;;;;8.11;51.53;97486.38;5055751;28;20218;-56
2022/03/27 02:40:03;;;;;;;22.57;16.53;;;;;;;8.15;50.38;97479.97;5075734;28;20301;-60
2022/03/27 02:42:30;;;;;;;23.33;16.07;;;;;;;8.10;50.08;97480.28;5056529;28;20208;-61
2022/03/27 02:44:57;;;;;;;20.37;15.90;;;;;;;8.10;50.71;97475.00;5060539;28;20260;-59
2022/03/27 02:47:25;;;;;;;21.23;15.63;;;;;;;8.11;50.87;97478.47;5055418;28;20268;-59
2022/03/27 02:49:52;;;;;;;23.47;15.90;;;;;;;8.00;52.02;97480.09;5055542;28;20210;-58
2022/03/27 02:52:18;;;;;;;24.40;16.73;;;;;;;8.01;50.56;97480.91;5055446;28;20227;-60
2022/03/27 02:54:45;;;;;;;24.80;16.70;;;;;;;7.97;51.10;97480.25;5055352;28;20209;-59
2022/03/27 02:57:11;;;;;;;22.30;16.57;;;;;;;7.96;51.11;97470.69;5055275;28;20207;-59
2022/03/27 02:59:38;;;;;;;22.37;16.93;;;;;;;7.98;50.82;97473.22;5054051;28;20227;-59
2022/03/27 03:02:06;;;;;;;23.00;17.00;;;;;;;7.92;51.25;97471.84;5054363;28;20199;-59
2022/03/27 03:04:34;;;;;;;23.13;16.67;;;;;;;7.91;50.64;97470.16;5055082;28;20207;-58
2022/03/27 03:07:01;;;;;;;22.67;15.97;;;;;;;7.85;51.47;97470.59;5054910;28;20292;-57
2022/03/27 03:09:28;;;;;;;22.90;16.33;;;;;;;7.87;51.55;97479.22;5054706;28;20203;-57
2022/03/27 03:11:55;;;;;;;23.23;16.27;;;;;;;7.81;51.55;97471.75;5054564;28;20244;-59
2022/03/27 03:14:22;;;;;;;24.03;16.27;;;;;;;7.74;52.06;97477.53;5041326;28;20567;-58
2022/03/27 03:16:49;;;;;;;21.90;15.90;;;;;;;7.72;50.91;97468.91;5054583;28;20207;-56
2022/03/27 03:19:16;;;;;;;21.27;15.93;;;;;;;7.64;52.31;97472.06;5054664;28;20543;-57
2022/03/27 03:21:44;;;;;;;21.87;16.47;;;;;;;7.62;52.14;97468.69;5055148;28;20210;-59
2022/03/27 03:24:10;;;;;;;21.33;15.77;;;;;;;7.61;52.15;97477.56;5054626;28;20276;-59
2022/03/27 03:26:37;;;;;;;21.67;16.30;;;;;;;7.59;52.79;97463.63;5054648;28;20210;-59
2022/03/27 03:29:03;;;;;;;23.17;16.40;;;;;;;7.50;53.07;97473.03;5054446;28;20214;-59
2022/03/27 03:31:30;;;;;;;21.87;16.57;;;;;;;7.47;51.98;97475.84;5054113;28;20203;-58
2022/03/27 03:33:56;;;;;;;22.40;16.07;;;;;;;7.47;52.34;97480.28;5054355;28;20230;-59
2022/03/27 03:36:23;;;;;;;20.03;15.80;;;;;;;7.54;53.42;97475.44;5054444;28;20211;-59
2022/03/27 03:38:51;;;;;;;21.97;16.30;;;;;;;7.53;53.19;97485.13;5055229;28;20317;-57
2022/03/27 03:41:18;;;;;;;24.03;16.23;;;;;;;7.41;53.53;97480.66;5056301;28;20239;-56
2022/03/27 03:43:44;;;;;;;22.47;15.63;;;;;;;7.30;54.06;97477.91;5056280;28;20235;-55
2022/03/27 03:46:10;;;;;;;20.97;15.63;;;;;;;7.30;53.34;97485.81;5055914;28;20547;-59
2022/03/27 03:48:37;;;;;;;22.20;15.03;;;;;;;7.30;53.57;97488.44;5055827;28;20215;-60
2022/03/27 03:51:03;;;;;;;21.20;16.40;;;;;;;7.29;53.63;97484.13;5055543;28;20218;-61
2022/03/27 03:53:30;;;;;;;19.70;15.37;;;;;;;7.27;54.21;97483.38;5054446;28;20230;-58
2022/03/27 03:55:57;;;;;;;20.53;16.40;;;;;;;7.16;53.41;97484.09;5054499;28;20206;-62
2022/03/27 03:58:24;;;;;;;21.53;15.43;;;;;;;7.19;53.39;97485.69;5053935;28;20201;-60
2022/03/27 04:00:51;;;;;;;21.77;15.37;;;;;;;7.21;53.62;97486.44;5053916;28;20195;-60
2022/03/27 04:03:17;;;;;;;21.83;15.80;;;;;;;7.14;54.97;97487.78;5054183;28;20214;-61
2022/03/27 04:05:44;;;;;;;20.70;16.03;;;;;;;7.06;55.08;97484.81;5054104;28;20547;-60
2022/03/27 04:08:10;;;;;;;24.53;16.27;;;;;;;7.10;53.97;97486.28;5054110;28;20207;-61
2022/03/27 04:10:37;;;;;;;24.30;16.47;;;;;;;7.09;53.45;97489.84;5053954;28;20215;-61
2022/03/27 04:13:06;;;;;;;25.07;15.67;;;;;;;7.05;53.66;97494.47;5050828;28;20238;-60
2022/03/27 04:15:33;;;;;;;22.70;15.70;;;;;;;7.01;53.79;97496.47;5054112;28;20218;-60
2022/03/27 04:18:00;;;;;;;23.60;16.40;;;;;;;6.95;53.86;97494.25;5047384;28;20203;-61
2022/03/27 04:20:27;;;;;;;21.83;15.77;;;;;;;6.92;54.36;97509.38;5053918;28;20247;-59
2022/03/27 04:22:53;;;;;;;20.27;15.23;;;;;;;6.91;54.14;97503.28;5054216;28;20207;-59
2022/03/27 04:25:20;;;;;;;21.03;15.57;;;;;;;6.88;54.67;97500.00;5053654;28;20243;-60
2022/03/27 04:27:47;;;;;;;23.17;15.87;;;;;;;6.87;54.48;97507.03;5054155;28;20211;-61
2022/03/27 04:30:16;;;;;;;22.93;15.33;;;;;;;6.88;54.23;97503.47;5054095;28;20214;-59
2022/03/27 04:32:42;;;;;;;23.33;16.70;;;;;;;6.86;54.07;97509.78;5054025;28;20223;-59
2022/03/27 04:35:09;;;;;;;22.87;16.17;;;;;;;6.84;53.96;97512.50;5054083;28;20214;-59
2022/03/27 04:37:39;;;;;;;20.23;15.20;;;;;;;6.79;54.65;97513.75;5053854;28;20218;-59
2022/03/27 04:40:06;;;;;;;26.47;16.80;;;;;;;6.72;54.54;97518.56;5063193;28;20230;-59
2022/03/27 04:42:33;;;;;;;23.13;16.57;;;;;;;6.61;55.24;97518.41;5062137;28;20210;-61
2022/03/27 04:44:59;;;;;;;19.47;14.80;;;;;;;6.62;55.56;97521.88;5058998;28;20211;-60
2022/03/27 04:47:27;;;;;;;21.87;15.60;;;;;;;6.56;55.64;97520.47;5058965;28;20636;-60
2022/03/27 04:49:53;;;;;;;21.00;15.70;;;;;;;6.52;55.86;97518.16;5060066;28;20211;-58
2022/03/27 04:52:20;;;;;;;20.30;14.23;;;;;;;6.57;55.48;97516.91;5060291;28;20207;-56
2022/03/27 04:54:46;;;;;;;21.80;15.97;;;;;;;6.55;55.41;97526.69;5059037;28;20222;-58
2022/03/27 04:57:12;;;;;;;22.23;15.47;;;;;;;6.50;55.65;97523.47;5061441;28;20218;-57
2022/03/27 04:59:39;;;;;;;23.90;16.10;;;;;;;6.44;56.06;97523.88;5075468;28;20207;-57
2022/03/27 05:02:05;;;;;;;20.73;14.63;;;;;;;6.46;55.86;97533.34;5077727;28;20222;-56
2022/03/27 05:04:33;;;;;;;21.80;15.37;;;;;;;6.40;56.08;97532.88;5068148;28;20218;-59
2022/03/27 05:07:00;;;;;;;21.73;15.60;;;;;;;6.40;55.82;97532.88;5057522;28;20215;-56
2022/03/27 05:09:26;;;;;;;24.37;16.30;;;;;;;6.37;55.65;97526.03;5043951;28;20207;-56
2022/03/27 05:11:55;;;;;;;22.03;15.77;;;;;;;6.40;56.02;97532.88;5056855;28;20627;-56
2022/03/27 05:14:21;;;;;;;22.20;16.17;;;;;;;6.39;55.72;97531.19;5056570;28;20223;-58
2022/03/27 05:16:48;;;;;;;21.60;15.70;;;;;;;6.43;55.84;97530.06;5055921;28;20214;-56
2022/03/27 05:19:15;;;;;;;22.80;16.90;;;;;;;6.37;56.14;97530.44;5056929;28;20218;-57
2022/03/27 05:21:42;;;;;;;25.13;15.87;;;;;;;6.36;56.54;97526.13;5056486;28;20554;-55
2022/03/27 05:24:10;;;;;;;21.07;15.80;;;;;;;6.41;56.39;97527.50;5056460;28;20203;-57
2022/03/27 05:26:37;;;;;;;23.60;15.83;;;;;;;6.46;56.79;97528.09;5048245;28;20632;-56
2022/03/27 05:29:06;;;;;;;24.27;16.47;;;;;;;6.42;56.20;97531.84;5064894;28;20203;-55
2022/03/27 05:31:33;;;;;;;23.13;16.30;;;;;;;6.45;56.17;97531.66;5056003;28;20512;-56
2022/03/27 05:34:00;;;;;;;21.27;15.37;;;;;;;6.50;56.17;97536.63;5056192;28;20612;-55
2022/03/27 05:36:26;;;;;;;24.50;17.17;;;;;;;6.47;56.39;97536.81;5056637;28;20204;-56
2022/03/27 05:38:55;;;;;;;23.07;16.70;;;;;;;6.49;56.49;97543.66;5056347;28;20211;-56
2022/03/27 05:41:21;;;;;;;22.63;16.70;;;;;;;6.52;56.75;97539.97;5049074;28;20599;-57
2022/03/27 05:43:48;;;;;;;22.70;15.27;;;;;;;6.58;56.74;97544.88;5055527;28;20239;-58
2022/03/27 05:46:14;;;;;;;22.50;16.00;;;;;;;6.63;57.80;97548.03;5056407;28;20543;-58
2022/03/27 05:48:41;;;;;;;24.10;16.47;;;;;;;6.67;57.73;97544.28;5056213;28;20793;-57
2022/03/27 05:51:07;;;;;;;21.73;16.87;;;;;;;6.60;57.97;97545.59;5056000;28;20671;-57
2022/03/27 05:53:34;;;;;;;21.70;16.80;;;;;;;6.72;58.94;97544.00;5056489;28;20554;-56
2022/03/27 05:56:02;;;;;;;23.53;16.93;;;;;;;6.74;59.23;97547.34;5057134;28;20203;-56
2022/03/27 05:58:28;;;;;;;21.17;16.00;;;;;;;6.76;59.23;97546.34;5056332;28;20227;-56
2022/03/27 06:00:55;;;;;;;23.30;17.37;;;;;;;6.95;59.35;97552.09;5056783;28;20207;-56
2022/03/27 06:03:22;;;;;;;22.80;15.70;;;;;;;7.60;57.88;97544.31;5056564;28;20207;-56
2022/03/27 06:05:49;;;;;;;22.83;16.43;;;;;;;8.76;53.65;97548.47;5056899;28;20306;-56
2022/03/27 06:08:16;;;;;;;21.60;17.03;;;;;;;9.87;50.96;97545.50;5056965;28;20290;-57
2022/03/27 06:10:43;;;;;;;22.53;16.27;;;;;;;10.38;48.91;97544.16;5057285;28;20214;-54
2022/03/27 06:13:11;;;;;;;25.23;17.00;;;;;;;10.76;48.63;97548.25;5057234;28;20230;-55
2022/03/27 06:15:37;;;;;;;23.97;16.93;;;;;;;10.59;49.71;97548.75;5057391;28;20558;-57
2022/03/27 06:18:04;;;;;;;22.27;17.67;;;;;;;11.01;48.34;97557.69;5056647;28;20226;-55
2022/03/27 06:20:32;;;;;;;20.93;17.47;;;;;;;10.80;49.37;97555.81;5057179;28;20226;-56
2022/03/27 06:22:59;;;;;;;20.30;17.30;;;;;;;11.04;49.10;97560.09;5057016;28;20222;-56
2022/03/27 06:25:27;;;;;;;20.47;17.10;;;;;;;11.67;48.18;97554.81;5056159;28;20246;-57
2022/03/27 06:27:55;;;;;;;21.13;17.30;;;;;;;11.87;47.17;97551.38;5056740;28;20214;-56
2022/03/27 06:30:25;;;;;;;22.40;17.07;;;;;;;11.43;48.13;97554.22;5057726;28;20280;-57
2022/03/27 06:32:52;;;;;;;19.67;16.77;;;;;;;12.16;47.21;97556.03;5056765;28;20201;-56
2022/03/27 06:35:19;;;;;;;23.77;17.97;;;;;;;12.70;45.58;97561.91;5056614;28;20237;-57
2022/03/27 06:37:46;;;;;;;22.13;17.27;;;;;;;13.48;44.12;97569.09;5057531;28;20674;-57
2022/03/27 06:40:14;;;;;;;21.07;17.00;;;;;;;13.51;44.53;97560.84;5059836;28;20230;-55
2022/03/27 06:42:41;;;;;;;20.80;18.00;;;;;;;13.95;44.02;97560.31;5059944;28;20195;-55
2022/03/27 06:45:10;;;;;;;22.25;16.85;;;;;;;14.21;42.75;97567.66;5059303;28;20214;-56
2022/03/27 06:47:38;;;;;;;20.50;18.15;;;;;;;15.13;41.70;97565.94;5061129;28;20303;-56
2022/03/27 06:50:06;;;;;;;22.52;17.52;;;;;;;15.19;40.83;97565.38;5059552;28;20230;-55
2022/03/27 06:52:34;;;;;;;20.90;17.35;;;;;;;15.38;40.47;97563.41;5060745;28;20253;-56
2022/03/27 06:55:00;;;;;;;19.80;17.70;;;;;;;15.92;39.62;97566.97;5057059;28;20323;-57
2022/03/27 06:57:27;;;;;;;24.80;18.40;;;;;;;16.32;38.08;97558.44;5057313;28;20218;-58
2022/03/27 07:05:24;;;;;;;23.45;19.52;;;;;;;16.78;34.29;97571.47;5042019;28;20272;-57
2022/03/27 07:07:50;;;;;;;23.02;17.92;;;;;;;16.91;34.65;97566.50;5041477;28;20627;-56
2022/03/27 07:10:17;;;;;;;24.10;18.73;;;;;;;16.90;31.25;97572.84;5055511;28;20642;-56
2022/03/27 07:12:45;;;;;;;26.23;18.73;;;;;;;17.03;31.33;97568.91;5055315;28;20271;-57
2022/03/27 07:15:12;;;;;;;22.85;18.08;;;;;;;16.62;32.40;97563.34;5055466;28;20317;-58
2022/03/27 07:17:45;;;;;;;21.58;18.10;;;;;;;16.03;34.02;97560.56;5058317;28;20207;-56
2022/03/27 07:20:12;;;;;;;28.50;19.60;;;;;;;15.54;34.54;97562.78;5061102;28;20207;-55
2022/03/27 07:22:39;;;;;;;23.73;18.23;;;;;;;15.06;34.71;97562.19;5059912;28;20281;-57
2022/03/27 07:25:07;;;;;;;24.17;18.87;;;;;;;14.62;36.15;97564.66;5048684;28;20580;-58
2022/03/27 07:27:34;;;;;;;25.57;18.87;;;;;;;14.65;34.33;97563.53;5053106;28;20277;-57
2022/03/27 07:30:01;;;;;;;27.17;19.67;;;;;;;13.98;36.78;97575.13;5054629;28;20657;-56
2022/03/27 07:32:27;;;;;;;25.30;19.70;;;;;;;13.73;36.00;97573.88;5055989;28;20508;-57
2022/03/27 07:34:56;;;;;;;24.13;18.10;;;;;;;13.58;37.32;97567.28;5044237;28;20250;-57
2022/03/27 07:37:22;;;;;;;23.67;17.70;;;;;;;13.57;37.22;97573.56;5052405;28;20207;-57
2022/03/27 07:39:49;;;;;;;25.43;19.13;;;;;;;13.36;36.60;97567.53;5048711;28;20218;-57
2022/03/27 07:42:16;;;;;;;22.50;18.33;;;;;;;13.43;36.28;97573.97;5052306;28;20650;-56
2022/03/27 07:44:42;;;;;;;22.83;18.33;;;;;;;13.42;36.20;97573.16;5055306;28;20199;-57
2022/03/27 07:47:09;;;;;;;26.93;18.33;;;;;;;13.31;37.89;97575.09;5055304;28;20218;-56
2022/03/27 07:49:35;;;;;;;25.10;18.33;;;;;;;13.32;36.66;97566.16;5055415;28;20273;-57
2022/03/27 07:52:05;;;;;;;24.53;18.53;;;;;;;13.29;36.43;97564.59;5055907;28;20218;-56
2022/03/27 07:54:31;;;;;;;23.63;17.50;;;;;;;13.39;36.50;97567.28;5055379;28;20226;-56
2022/03/27 07:56:58;;;;;;;24.87;18.40;;;;;;;13.36;35.62;97567.53;5055121;28;20207;-56
2022/03/27 07:59:26;;;;;;;24.63;17.80;;;;;;;13.19;36.19;97568.22;5055594;28;20232;-57
2022/03/27 08:01:53;;;;;;;25.20;17.67;;;;;;;13.11;36.11;97568.06;5058908;28;20207;-58
2022/03/27 08:04:19;;;;;;;23.20;18.27;;;;;;;13.29;36.56;97566.41;5056115;28;20198;-56
2022/03/27 08:06:47;;;;;;;25.57;18.47;;;;;;;13.32;35.70;97566.16;5055798;28;20207;-56
2022/03/27 08:09:15;;;;;;;26.37;19.47;;;;;;;13.22;37.64;97559.97;5057134;28;20540;-56
2022/03/27 08:11:42;;;;;;;25.20;18.00;;;;;;;13.32;36.83;97560.84;5055177;28;20222;-56
2022/03/27 08:14:09;;;;;;;21.50;17.07;;;;;;;13.55;37.33;97575.53;5057497;28;20234;-56
2022/03/27 08:16:37;;;;;;;25.73;18.73;;;;;;;13.59;36.19;97568.97;5058579;28;20207;-56
2022/03/27 08:19:04;;;;;;;29.17;18.23;;;;;;;13.54;36.68;97576.50;5057626;28;20264;-56
2022/03/27 08:21:30;;;;;;;24.63;18.53;;;;;;;13.50;36.79;97568.97;5044076;28;20226;-56
2022/03/27 08:23:57;;;;;;;21.60;17.70;;;;;;;13.63;37.03;97574.84;5058087;28;20207;-57
2022/03/27 08:29:09;;;;;;;25.40;17.67;;;;;;;13.46;35.97;97568.41;5058104;28;20276;-56
2022/03/27 08:31:35;;;;;;;22.47;17.47;;;;;;;13.40;36.70;97566.28;5058120;28;20218;-58
2022/03/27 08:34:02;;;;;;;19.83;16.60;;;;;;;13.60;36.47;97569.81;5057673;28;20223;-56
2022/03/27 08:36:28;;;;;;;21.40;17.50;;;;;;;13.56;36.80;97573.72;5057995;28;20246;-56
2022/03/27 08:38:55;;;;;;;23.67;17.70;;;;;;;13.61;36.93;97569.66;5058381;28;20207;-56
2022/03/27 08:41:22;;;;;;;23.00;16.77;;;;;;;13.82;36.19;97570.38;5058571;28;20238;-56
2022/03/27 08:43:58;;;;;;;23.57;17.27;;;;;;;13.85;35.99;97578.06;5057146;28;20212;-56
2022/03/27 08:46:26;;;;;;;22.20;17.17;;;;;;;14.16;36.51;97569.94;5058187;28;20237;-56
2022/03/27 08:48:52;;;;;;;22.27;17.07;;;;;;;14.49;35.04;97569.44;5058207;28;20220;-56
2022/03/27 08:51:28;;;;;;;22.90;18.30;;;;;;;14.66;34.20;97566.06;5058328;28;20598;-55
2022/03/27 08:54:00;;;;;;;24.57;17.60;;;;;;;14.98;34.20;97564.78;5057765;28;20697;-57
2022/03/27 08:56:28;;;;;;;24.07;17.63;;;;;;;15.18;33.55;97571.69;5063363;28;20218;-56
2022/03/27 08:58:58;;;;;;;22.73;16.67;;;;;;;15.60;33.89;97575.50;5064488;28;20199;-57
2022/03/27 09:01:25;;;;;;;21.97;17.77;;;;;;;15.91;33.66;97570.63;5060742;28;20270;-55
2022/03/27 09:03:52;;;;;;;21.33;17.90;;;;;;;16.44;32.49;97573.19;5057246;28;20349;-56
2022/03/27 09:06:21;;;;;;;21.33;17.33;;;;;;;16.61;31.41;97574.19;5059533;28;20207;-56
2022/03/27 09:08:48;;;;;;;22.47;17.93;;;;;;;16.53;30.30;97572.28;5060146;28;20238;-58
2022/03/27 09:11:16;;;;;;;23.73;18.13;;;;;;;16.73;30.62;97568.41;5060282;28;20214;-57
2022/03/27 09:13:44;;;;;;;19.90;17.13;;;;;;;17.12;31.84;97567.91;5057233;28;20203;-58
2022/03/27 09:16:12;;;;;;;20.55;16.95;;;;;;;17.49;31.06;97572.91;5058808;28;20214;-57
2022/03/27 09:18:44;;;;;;;21.00;16.75;;;;;;;17.68;30.18;97578.81;5070007;28;20199;-58
2022/03/27 09:21:10;;;;;;;21.35;17.83;;;;;;;17.88;29.64;97579.34;5079045;28;20196;-56
2022/03/27 09:23:38;;;;;;;23.83;17.25;;;;;;;17.90;29.01;97574.66;5078324;28;20187;-56
2022/03/27 09:26:06;;;;;;;21.70;16.83;;;;;;;18.38;28.47;97573.84;5057904;28;20329;-56
2022/03/27 09:28:37;;;;;;;20.90;16.70;;;;;;;18.45;27.75;97574.84;5057029;28;20210;-58
2022/03/27 09:31:05;;;;;;;21.17;17.13;;;;;;;18.55;27.68;97572.00;5056643;28;20357;-58
2022/03/27 09:33:35;;;;;;;23.08;18.13;;;;;;;19.00;27.02;97571.38;5045623;28;20219;-57
2022/03/27 09:36:10;;;;;;;18.77;16.48;;;;;;;19.16;27.07;97568.63;5073983;28;20207;-56
2022/03/27 09:38:37;;;;;;;21.23;16.52;;;;;;;19.34;26.44;97570.03;5061231;28;20210;-58
2022/03/27 09:41:03;;;;;;;20.02;16.52;;;;;;;20.02;27.11;97568.47;5061304;28;20206;-58
2022/03/27 09:43:30;;;;;;;21.70;17.52;;;;;;;19.66;26.19;97569.06;5056986;28;20207;-56
2022/03/27 09:45:58;;;;;;;18.23;16.23;;;;;;;19.98;27.57;97569.88;5056880;28;20333;-56
2022/03/27 09:48:24;;;;;;;22.35;17.40;;;;;;;20.23;26.95;97566.78;5056254;28;20226;-56
2022/03/27 09:50:54;;;;;;;20.08;16.90;;;;;;;20.19;26.72;97567.34;5057680;28;20215;-56
2022/03/27 09:53:23;;;;;;;23.92;17.15;;;;;;;20.46;26.03;97566.81;5054851;28;20203;-57
2022/03/27 09:55:53;;;;;;;21.83;16.98;;;;;;;20.74;25.73;97562.47;5044979;28;20272;-56
2022/03/27 09:58:33;;;;;;;20.35;16.67;;;;;;;21.37;27.36;97563.78;5056478;28;20655;-56
2022/03/27 10:01:08;;;;;;;18.67;16.65;;;;;;;21.16;24.90;97556.47;5056429;28;20203;-57
2022/03/27 10:03:35;;;;;;;19.98;16.63;;;;;;;20.75;24.44;97563.31;5056068;28;20643;-56
2022/03/27 10:06:03;;;;;;;19.83;16.77;;;;;;;20.32;25.91;97551.50;5056602;28;20235;-56
2022/03/27 10:08:30;;;;;;;18.00;16.10;;;;;;;20.36;24.74;97547.44;5056184;28;20203;-58
2022/03/27 10:10:59;;;;;;;17.92;15.20;;;;;;;20.96;25.21;97557.22;5056202;28;20207;-57
2022/03/27 10:13:29;;;;;;;20.17;16.73;;;;;;;20.80;25.30;97556.38;5037888;28;20295;-55
2022/03/27 10:15:57;;;;;;;17.70;15.77;;;;;;;21.01;25.53;97554.81;5055755;28;20296;-56
2022/03/27 10:18:24;;;;;;;18.35;16.45;;;;;;;21.13;25.76;97550.63;5055661;28;20207;-59
2022/03/27 10:20:52;;;;;;;18.98;16.58;;;;;;;21.24;25.16;97548.31;5056561;28;20218;-57
2022/03/27 10:23:23;;;;;;;20.17;17.38;;;;;;;21.38;25.47;97549.31;5056079;28;20207;-56
2022/03/27 10:25:53;;;;;;;19.40;16.63;;;;;;;21.61;25.23;97549.97;5055623;28;20234;-56
2022/03/27 10:28:21;;;;;;;20.77;18.08;;;;;;;21.32;25.57;97550.06;5055509;28;20211;-55
2022/03/27 10:30:50;;;;;;;20.75;17.83;;;;;;;21.50;25.46;97541.59;5055478;28;20215;-58
2022/03/27 10:33:18;;;;;;;20.33;17.85;;;;;;;20.98;24.61;97542.53;5056556;28;20207;-57
2022/03/27 10:35:55;;;;;;;22.05;17.48;;;;;;;21.04;24.96;97540.97;5050270;28;20668;-56
2022/03/27 10:38:44;;;;;;;22.27;17.70;;;;;;;21.28;24.56;97538.00;5047305;28;20213;-57
2022/03/27 10:41:14;;;;;;;18.88;16.67;;;;;;;21.52;24.31;97532.28;5054881;28;20211;-57
2022/03/27 10:43:47;;;;;;;19.70;16.48;;;;;;;21.44;25.06;97539.63;5054964;28;20203;-57
2022/03/27 10:46:20;;;;;;;21.25;17.40;;;;;;;21.95;24.65;97530.50;5055354;28;20214;-57
2022/03/27 10:48:49;;;;;;;19.63;16.00;;;;;;;22.43;24.87;97528.00;5055302;28;20218;-57
2022/03/27 10:51:36;;;;;;;19.00;17.00;;;;;;;21.93;24.84;97537.13;5055093;28;20214;-57
2022/03/27 10:54:06;;;;;;;19.63;16.52;;;;;;;22.40;23.33;97531.91;5055565;28;20210;-57
2022/03/27 10:56:35;;;;;;;18.35;16.48;;;;;;;22.61;24.42;97521.09;5055272;28;20207;-56
2022/03/27 10:59:16;;;;;;;23.35;17.40;;;;;;;22.66;22.34;97525.91;5054610;28;20210;-57
2022/03/27 11:01:45;;;;;;;19.95;16.67;;;;;;;22.27;23.97;97519.19;5041591;28;20620;-56
2022/03/27 11:04:13;;;;;;;21.77;17.55;;;;;;;22.46;24.03;97517.66;5054862;28;20214;-56
2022/03/27 11:06:42;;;;;;;20.10;16.88;;;;;;;23.02;23.57;97512.25;5054647;28;20210;-57
2022/03/27 11:09:12;;;;;;;20.15;17.55;;;;;;;23.21;23.26;97504.22;5054864;28;20207;-57
2022/03/27 11:12:06;;;;;;;20.38;17.92;;;;;;;23.04;23.75;97499.38;5055203;28;20237;-56
2022/03/27 11:14:50;;;;;;;19.38;17.27;;;;;;;;;;5054824;28;20211;-56
2022/03/27 11:17:17;;;;;;;20.05;17.75;;;;;;;22.96;24.15;97505.75;5054956;28;20213;-57
2022/03/27 11:19:44;;;;;;;20.88;17.88;;;;;;;23.05;23.06;97503.75;5055052;28;20214;-57
2022/03/27 11:22:43;;;;;;;20.40;18.08;;;;;;;22.59;23.45;97509.69;5054642;28;20604;-56
2022/03/27 11:25:29;;;;;;;20.88;18.65;;;;;;;23.17;24.85;97504.81;5044294;28;20226;-57
2022/03/27 11:28:06;;;;;;;20.75;18.58;;;;;;;22.92;24.83;97503.69;5055057;28;20202;-57
2022/03/27 11:30:34;;;;;;;20.85;18.65;;;;;;;22.86;24.21;97502.59;5055158;28;20241;-56
2022/03/27 11:33:14;;;;;;;20.73;18.50;;;;;;;23.50;23.17;97499.56;5054854;28;20203;-57
2022/03/27 11:35:41;;;;;;;21.98;18.98;;;;;;;23.40;23.32;97499.94;5055855;28;20685;-56
2022/03/27 11:38:21;;;;;;;22.40;20.02;;;;;;;23.59;22.41;97504.63;5056795;28;20214;-56